Time;durP1;ratioP1;P1;durP2;ratioP2;P2;SDS_P1;SDS_P2;PMS_P1;PMS_P2;Temp;Humidity;BMP_temperature;BMP_pressure;BME280_temperature;BME280_humidity;BME280_pressure;Samples;Min_cycle;Max_cycle;Signal;HPM_P1;HPM_P2
2022/04/09 00:00:16;;;;;;;14.13;8.05;;;;;;;9.25;64.67;92628.47;5069962;28;20049;-51
2022/04/09 00:02:43;;;;;;;18.13;9.38;;;;;;;9.16;65.22;92624.28;5070228;28;20044;-51
2022/04/09 00:05:11;;;;;;;8.43;5.63;;;;;;;8.96;65.49;92628.09;5070130;28;20028;-53
2022/04/09 00:07:36;;;;;;;10.07;6.38;;;;;;;8.98;65.74;92625.50;5108733;28;20500;-53
2022/04/09 00:10:05;;;;;;;6.47;4.50;;;;;;;8.89;65.60;92630.84;5103341;28;20024;-55
2022/04/09 00:12:30;;;;;;;4.97;4.03;;;;;;;8.72;65.93;92608.72;5090212;28;20085;-55
2022/04/09 00:14:56;;;;;;;5.72;4.05;;;;;;;8.88;65.58;92627.38;5090602;28;20088;-52
2022/04/09 00:17:21;;;;;;;4.93;3.35;;;;;;;8.58;65.84;92613.00;5097617;28;20020;-54
2022/04/09 00:19:48;;;;;;;8.27;5.88;;;;;;;8.68;66.71;92622.88;5110741;28;20648;-56
2022/04/09 00:22:13;;;;;;;11.50;6.05;;;;;;;8.67;66.60;92620.66;5091924;28;20031;-53
2022/04/09 00:24:38;;;;;;;10.32;5.72;;;;;;;8.77;66.56;92618.81;5090470;28;20028;-54
2022/04/09 00:27:04;;;;;;;22.17;10.75;;;;;;;8.71;66.38;92618.25;5089370;28;20421;-55
2022/04/09 00:29:29;;;;;;;8.70;5.78;;;;;;;8.72;66.70;92617.00;5103827;28;20028;-55
2022/04/09 00:31:55;;;;;;;9.48;5.97;;;;;;;8.57;67.35;92631.53;5110663;28;20615;-51
2022/04/09 00:34:20;;;;;;;12.85;5.93;;;;;;;8.49;66.13;92635.59;5110687;28;20034;-58
2022/04/09 00:36:46;;;;;;;13.20;6.43;;;;;;;8.58;65.92;92632.25;5113382;28;20423;-58
2022/04/09 00:39:11;;;;;;;10.30;6.85;;;;;;;8.50;66.39;92629.53;5114898;28;20028;-58
2022/04/09 00:41:47;;;;;;;10.48;7.13;;;;;;;8.46;66.70;92639.44;5114529;28;20084;-58
2022/04/09 00:44:19;;;;;;;28.40;13.90;;;;;;;8.37;66.64;92635.25;5114709;28;20035;-58
2022/04/09 00:46:45;;;;;;;9.27;6.75;;;;;;;8.33;67.25;92632.16;5114522;28;20110;-57
2022/04/09 00:49:11;;;;;;;9.32;6.38;;;;;;;7.94;68.65;92624.50;5114265;28;20026;-58
2022/04/09 00:51:40;;;;;;;9.27;6.43;;;;;;;7.76;68.58;92631.09;5098852;28;20032;-56
2022/04/09 00:54:05;;;;;;;17.80;9.07;;;;;;;7.78;68.33;92614.78;5093802;28;20168;-56
2022/04/09 00:56:32;;;;;;;12.93;8.00;;;;;;;7.89;68.57;92603.44;5093900;28;20110;-58
2022/04/09 00:59:02;;;;;;;17.83;11.15;;;;;;;7.92;69.17;92616.81;5092137;28;20032;-54
2022/04/09 01:01:31;;;;;;;19.90;13.43;;;;;;;7.84;68.59;92626.34;5093719;28;20501;-57
2022/04/09 01:03:56;;;;;;;15.55;10.07;;;;;;;7.92;68.46;92621.56;5093940;28;20539;-54
2022/04/09 01:06:22;;;;;;;20.38;13.25;;;;;;;7.87;68.46;92620.47;5080153;28;20054;-55
2022/04/09 01:08:47;;;;;;;17.75;9.43;;;;;;;7.75;68.70;92615.91;5073342;28;20087;-54
2022/04/09 01:11:14;;;;;;;21.60;11.15;;;;;;;7.68;69.75;92627.63;5073311;28;20028;-54
2022/04/09 01:13:44;;;;;;;13.30;8.02;;;;;;;7.66;68.93;92608.94;5073104;28;20064;-52
2022/04/09 01:16:10;;;;;;;11.38;7.20;;;;;;;7.96;68.39;92616.44;5073032;28;20103;-49
2022/04/09 01:18:36;;;;;;;11.20;7.13;;;;;;;7.81;68.68;92610.94;5073143;28;20028;-52
2022/04/09 01:21:03;;;;;;;15.90;10.65;;;;;;;7.89;68.34;92625.41;5073159;28;20089;-50
2022/04/09 01:23:28;;;;;;;14.00;8.65;;;;;;;7.56;69.28;92625.25;5072992;28;20031;-51
2022/04/09 01:25:58;;;;;;;14.18;8.32;;;;;;;7.22;70.11;92591.91;5073314;28;20020;-54
2022/04/09 01:28:25;;;;;;;12.18;8.02;;;;;;;7.51;70.91;92615.16;5072925;28;20027;-50
2022/04/09 01:30:50;;;;;;;15.13;9.10;;;;;;;7.64;70.60;92620.47;5072220;28;20516;-53
2022/04/09 01:33:20;;;;;;;13.90;10.85;;;;;;;7.65;70.29;92623.97;5072140;28;20062;-51
2022/04/09 01:35:46;;;;;;;12.10;7.72;;;;;;;7.80;68.50;92623.22;5072809;28;20025;-53
2022/04/09 01:38:12;;;;;;;16.25;8.82;;;;;;;7.74;68.63;92614.44;5071786;28;20056;-54
2022/04/09 01:40:38;;;;;;;14.07;6.95;;;;;;;7.78;68.43;92607.28;5073029;28;20023;-54
2022/04/09 01:43:04;;;;;;;11.27;7.07;;;;;;;7.99;67.56;92602.31;5072704;28;20017;-55
2022/04/09 01:45:29;;;;;;;11.98;7.75;;;;;;;7.85;67.89;92600.31;5072985;28;20020;-54
2022/04/09 01:47:55;;;;;;;11.68;7.90;;;;;;;7.72;68.50;92598.50;5087022;28;20059;-56
2022/04/09 01:50:26;;;;;;;10.27;7.18;;;;;;;7.74;69.14;92597.94;5092976;28;20051;-56
2022/04/09 01:52:52;;;;;;;12.70;6.63;;;;;;;7.77;68.66;92600.34;5088041;28;20107;-55
2022/04/09 01:55:17;;;;;;;16.48;8.90;;;;;;;7.82;69.11;92593.91;5072704;28;20088;-54
2022/04/09 01:57:42;;;;;;;17.00;8.98;;;;;;;7.71;69.30;92604.56;5076674;28;20418;-51
2022/04/09 02:00:10;;;;;;;9.93;6.95;;;;;;;7.41;69.50;92610.75;5092324;28;20044;-53
2022/04/09 02:02:36;;;;;;;14.18;8.63;;;;;;;7.32;70.29;92612.03;5092568;28;20058;-51
2022/04/09 02:05:02;;;;;;;12.25;8.02;;;;;;;7.36;70.21;92608.94;5092547;28;20109;-50
2022/04/09 02:07:27;;;;;;;9.02;5.95;;;;;;;7.52;69.56;92602.16;5092460;28;20027;-47
2022/04/09 02:09:54;;;;;;;14.23;7.68;;;;;;;7.48;70.05;92616.28;5092836;28;20027;-48
2022/04/09 02:12:19;;;;;;;12.63;8.00;;;;;;;7.55;70.29;92612.06;5092529;28;20031;-47
2022/04/09 02:14:45;;;;;;;18.42;9.57;;;;;;;7.52;70.21;92613.16;5092471;28;20028;-48
2022/04/09 02:17:11;;;;;;;10.20;6.95;;;;;;;7.39;69.79;92610.59;5092583;28;20084;-49
2022/04/09 02:19:38;;;;;;;12.13;7.40;;;;;;;7.26;70.65;92616.97;5092586;28;20508;-48
2022/04/09 02:22:04;;;;;;;12.75;6.85;;;;;;;7.19;71.05;92623.19;5092178;28;20016;-52
2022/04/09 02:24:29;;;;;;;11.98;7.03;;;;;;;7.10;71.15;92621.00;5092480;28;20027;-49
2022/04/09 02:26:54;;;;;;;12.13;7.53;;;;;;;7.15;71.25;92620.06;5092469;28;20035;-52
2022/04/09 02:29:20;;;;;;;9.85;6.50;;;;;;;7.18;71.08;92618.25;5092351;28;20405;-51
2022/04/09 02:31:45;;;;;;;15.52;8.65;;;;;;;7.18;71.22;92623.75;5092011;28;20032;-49
2022/04/09 02:34:11;;;;;;;13.40;8.77;;;;;;;7.20;70.25;92621.91;5092189;28;20507;-47
2022/04/09 02:36:36;;;;;;;12.68;8.63;;;;;;;7.27;70.32;92621.22;5091966;28;20031;-49
2022/04/09 02:39:03;;;;;;;15.02;8.25;;;;;;;7.25;69.92;92625.78;5092244;28;20501;-56
2022/04/09 02:41:29;;;;;;;17.63;9.07;;;;;;;7.14;70.01;92615.13;5091732;28;20024;-57
2022/04/09 02:43:54;;;;;;;14.05;8.05;;;;;;;7.07;70.19;92618.59;5078423;28;20520;-56
2022/04/09 02:46:21;;;;;;;11.60;7.65;;;;;;;7.07;70.29;92624.09;5071423;28;20025;-58
2022/04/09 02:48:46;;;;;;;9.73;5.55;;;;;;;6.77;70.99;92630.22;5071732;28;20024;-59
2022/04/09 02:51:12;;;;;;;7.80;4.95;;;;;;;6.59;72.52;92623.75;5071758;28;20036;-58
2022/04/09 02:53:38;;;;;;;8.90;5.10;;;;;;;6.52;73.08;92610.03;5071602;28;20020;-58
2022/04/09 02:56:04;;;;;;;5.03;4.00;;;;;;;6.50;73.52;92616.03;5071222;28;20601;-58
2022/04/09 02:58:29;;;;;;;6.80;4.50;;;;;;;6.46;73.89;92612.94;5081529;28;20052;-57
2022/04/09 03:00:55;;;;;;;4.75;3.53;;;;;;;6.59;73.81;92615.53;5091285;28;20497;-56
2022/04/09 03:03:20;;;;;;;5.47;3.45;;;;;;;6.70;72.71;92609.00;5091417;28;20023;-56
2022/04/09 03:05:45;;;;;;;7.30;4.45;;;;;;;6.63;72.36;92610.44;5082801;28;20024;-55
2022/04/09 03:08:11;;;;;;;6.82;4.35;;;;;;;6.59;72.46;92606.56;5071265;28;20023;-57
2022/04/09 03:10:36;;;;;;;6.45;4.78;;;;;;;6.66;72.12;92595.63;5071089;28;20547;-56
2022/04/09 03:13:04;;;;;;;6.85;4.63;;;;;;;6.76;71.42;92612.28;5070917;28;20024;-57
2022/04/09 03:15:30;;;;;;;4.45;3.38;;;;;;;6.63;71.07;92602.19;5071289;28;20425;-55
2022/04/09 03:17:55;;;;;;;6.95;4.50;;;;;;;6.43;71.50;92591.34;5071187;28;20477;-54
2022/04/09 03:20:21;;;;;;;13.73;7.47;;;;;;;6.54;70.33;92597.22;5070706;28;20029;-54
2022/04/09 03:22:48;;;;;;;12.32;7.85;;;;;;;6.60;70.51;92599.81;5070762;28;20016;-55
2022/04/09 03:25:13;;;;;;;13.70;8.30;;;;;;;6.45;70.41;92580.56;5070732;28;20020;-54
2022/04/09 03:27:39;;;;;;;13.95;8.95;;;;;;;6.47;70.55;92602.69;5070770;28;20114;-53
2022/04/09 03:30:08;;;;;;;14.52;9.25;;;;;;;6.50;70.62;92593.38;5070866;28;20099;-54
2022/04/09 03:32:37;;;;;;;15.70;9.35;;;;;;;6.49;70.46;92589.19;5070870;28;20025;-51
2022/04/09 03:35:04;;;;;;;;;;;;;;;6.32;71.15;92597.16;5071128;28;20021;-55
2022/04/09 03:37:29;;;;;;;14.48;8.60;;;;;;;6.18;72.29;92576.59;5070762;28;20465;-51
2022/04/09 03:39:54;;;;;;;17.30;10.90;;;;;;;6.04;72.32;92584.94;5081736;28;20020;-55
2022/04/09 03:42:20;;;;;;;17.58;10.02;;;;;;;6.02;72.53;92578.56;5090575;28;20020;-55
2022/04/09 03:44:45;;;;;;;14.32;8.98;;;;;;;6.09;72.40;92578.59;5090990;28;20036;-51
2022/04/09 03:47:11;;;;;;;12.20;8.25;;;;;;;6.02;71.52;92576.53;5090627;28;20024;-51
2022/04/09 03:49:36;;;;;;;15.35;9.48;;;;;;;5.97;71.59;92577.44;5090885;28;20024;-52
2022/04/09 03:52:02;;;;;;;49.17;27.02;;;;;;;5.81;72.09;92567.63;5090581;28;20020;-48
2022/04/09 03:54:27;;;;;;;26.98;15.35;;;;;;;5.67;73.57;92569.03;5090769;28;20027;-49
2022/04/09 03:56:54;;;;;;;28.23;15.38;;;;;;;5.58;74.07;92561.28;5090838;28;20027;-49
2022/04/09 03:59:19;;;;;;;23.50;13.95;;;;;;;5.52;74.47;92557.97;5089920;28;20044;-50
2022/04/09 04:01:47;;;;;;;17.58;9.95;;;;;;;5.57;74.38;92553.59;5090480;28;20026;-49
2022/04/09 04:04:13;;;;;;;13.57;8.32;;;;;;;5.69;73.52;92563.00;5090247;28;20019;-50
2022/04/09 04:06:39;;;;;;;17.33;10.02;;;;;;;5.73;72.30;92561.38;5074512;28;20036;-50
2022/04/09 04:09:06;;;;;;;11.48;7.43;;;;;;;5.75;71.33;92560.84;5070231;28;20020;-53
2022/04/09 04:11:31;;;;;;;11.18;8.32;;;;;;;5.79;70.93;92556.47;5069304;28;20055;-50
2022/04/09 04:13:57;;;;;;;12.38;9.05;;;;;;;5.71;71.32;92544.03;5097099;28;20059;-52
2022/04/09 04:16:22;;;;;;;12.90;9.55;;;;;;;5.81;71.06;92555.94;5109743;28;20501;-52
2022/04/09 04:18:48;;;;;;;16.73;10.93;;;;;;;5.77;71.42;92545.34;5090237;28;20572;-53
2022/04/09 04:21:14;;;;;;;27.25;8.93;;;;;;;5.67;71.75;92547.13;5099530;28;20015;-52
2022/04/09 04:23:39;;;;;;;8.65;6.85;;;;;;;5.56;71.86;92543.94;5110560;28;20557;-53
2022/04/09 04:26:05;;;;;;;26.10;10.27;;;;;;;5.71;72.49;92554.97;5110688;28;20020;-50
2022/04/09 04:28:30;;;;;;;30.65;16.77;;;;;;;5.62;72.18;92550.72;5102521;28;20552;-52
2022/04/09 04:30:55;;;;;;;22.38;15.73;;;;;;;5.71;71.84;92558.44;5077329;28;20039;-60
2022/04/09 04:33:21;;;;;;;31.58;18.75;;;;;;;5.77;71.82;92552.81;5089494;28;20085;-59
2022/04/09 04:35:47;;;;;;;30.00;17.98;;;;;;;5.80;71.96;92547.00;5081969;28;20081;-60
2022/04/09 04:38:13;;;;;;;32.78;18.50;;;;;;;5.70;72.25;92548.03;5099291;28;20385;-61
2022/04/09 04:40:38;;;;;;;28.63;19.02;;;;;;;5.73;72.59;92553.16;5096670;28;20028;-60
2022/04/09 04:43:04;;;;;;;21.45;13.30;;;;;;;5.73;72.80;92547.69;5089117;28;20104;-60
2022/04/09 04:45:30;;;;;;;14.90;9.70;;;;;;;5.62;73.27;92548.00;5093740;28;20030;-47
2022/04/09 04:47:55;;;;;;;14.38;8.80;;;;;;;5.83;73.47;92548.66;5101920;28;20032;-46
2022/04/09 04:50:21;;;;;;;18.50;10.30;;;;;;;5.77;74.00;92542.59;5110415;28;20051;-45
2022/04/09 04:52:47;;;;;;;33.45;16.00;;;;;;;5.75;74.49;92538.94;5094581;28;20110;-45
2022/04/09 04:55:14;;;;;;;37.13;19.52;;;;;;;5.96;74.39;92542.34;5089865;28;20024;-45
2022/04/09 04:57:51;;;;;;;28.25;16.33;;;;;;;6.08;74.13;92538.78;5089540;28;20074;-45
2022/04/09 05:00:19;;;;;;;30.05;17.73;;;;;;;6.31;73.42;92546.34;5089565;28;20578;-45
2022/04/09 05:02:44;;;;;;;30.25;19.75;;;;;;;6.49;72.58;92537.06;5089090;28;20023;-45
2022/04/09 05:05:10;;;;;;;36.97;24.52;;;;;;;6.52;72.19;92538.75;5085605;28;20024;-44
2022/04/09 05:07:46;;;;;;;38.50;23.67;;;;;;;6.65;71.72;92531.06;5069688;28;20032;-44
2022/04/09 05:10:14;;;;;;;47.78;25.35;;;;;;;6.68;71.84;92540.22;5069386;28;20024;-45
2022/04/09 05:12:39;;;;;;;66.35;30.35;;;;;;;6.84;72.24;92536.97;5069546;28;20421;-46
2022/04/09 05:15:06;;;;;;;68.10;33.88;;;;;;;7.01;71.61;92532.97;5069741;28;20035;-45
2022/04/09 05:17:32;;;;;;;52.70;26.77;;;;;;;6.99;72.09;92536.25;5069713;28;20021;-46
2022/04/09 05:19:57;;;;;;;26.38;14.85;;;;;;;7.11;70.90;92534.63;5069377;28;20027;-46
2022/04/09 05:22:23;;;;;;;26.15;13.98;;;;;;;7.20;71.37;92536.09;5071609;28;20020;-45
2022/04/09 05:24:49;;;;;;;20.60;11.57;;;;;;;7.37;71.52;92530.78;5073005;28;20508;-45
2022/04/09 05:27:15;;;;;;;17.85;11.98;;;;;;;7.37;70.53;92525.28;5073006;28;20513;-44
2022/04/09 05:29:40;;;;;;;16.27;11.25;;;;;;;7.58;70.30;92540.28;5073188;28;20021;-44
2022/04/09 05:32:06;;;;;;;15.80;10.98;;;;;;;7.76;69.70;92551.41;5081403;28;20542;-43
2022/04/09 05:34:31;;;;;;;22.73;11.15;;;;;;;7.83;69.40;92529.44;5093112;28;20024;-45
2022/04/09 05:36:57;;;;;;;21.65;12.50;;;;;;;8.40;69.28;92537.91;5093387;28;20020;-48
2022/04/09 05:39:22;;;;;;;16.83;10.85;;;;;;;9.40;66.90;92525.72;5093061;28;20020;-46
2022/04/09 05:41:48;;;;;;;17.90;9.90;;;;;;;10.51;63.12;92529.94;5093300;28;20016;-48
2022/04/09 05:44:13;;;;;;;14.23;8.27;;;;;;;10.83;62.02;92526.94;5092818;28;20024;-48
2022/04/09 05:46:39;;;;;;;10.20;6.63;;;;;;;11.00;60.88;92524.13;5093213;28;20077;-48
2022/04/09 05:49:04;;;;;;;12.80;6.18;;;;;;;11.02;60.83;92523.56;5092909;28;20573;-49
2022/04/09 05:51:30;;;;;;;10.65;7.75;;;;;;;11.08;62.09;92526.78;5092751;28;20020;-46
2022/04/09 05:53:55;;;;;;;14.90;9.40;;;;;;;11.04;61.44;92515.44;5092870;28;20394;-46
2022/04/09 05:56:22;;;;;;;13.25;9.50;;;;;;;10.90;62.37;92519.84;5092631;28;20395;-45
2022/04/09 05:58:47;;;;;;;14.48;10.70;;;;;;;11.04;63.05;92505.13;5095487;28;20052;-46
2022/04/09 06:01:13;;;;;;;18.15;11.82;;;;;;;11.42;62.31;92505.28;5096880;28;20473;-45
2022/04/09 06:03:39;;;;;;;26.15;13.68;;;;;;;11.77;60.96;92503.06;5108771;28;20390;-44
2022/04/09 06:06:05;;;;;;;17.95;13.52;;;;;;;12.21;60.77;92513.91;5092406;28;20027;-45
2022/04/09 06:08:33;;;;;;;15.18;11.07;;;;;;;12.99;58.54;92510.47;5099014;28;20031;-48
2022/04/09 06:10:59;;;;;;;22.23;14.00;;;;;;;13.87;55.26;92496.41;5113233;28;20031;-52
2022/04/09 06:13:25;;;;;;;31.38;18.23;;;;;;;15.10;53.66;92504.34;5112489;28;20564;-47
2022/04/09 06:15:50;;;;;;;23.63;15.23;;;;;;;16.60;49.90;92500.81;5113084;28;20026;-49
2022/04/09 06:18:16;;;;;;;31.33;18.83;;;;;;;18.26;46.26;92490.88;5112678;28;20480;-50
2022/04/09 06:20:41;;;;;;;31.48;20.10;;;;;;;19.84;42.81;92488.69;5112162;28;20055;-55
2022/04/09 06:23:07;;;;;;;29.30;18.15;;;;;;;21.35;39.38;92495.06;5112919;28;20575;-55
2022/04/09 06:25:33;;;;;;;10.25;5.70;;;;;;;23.04;33.92;92489.97;5092335;28;20489;-48
2022/04/09 06:27:59;;;;;;;4.47;2.45;;;;;;;24.45;30.59;92485.81;5086004;28;20115;-48
2022/04/09 06:30:25;;;;;;;6.30;1.95;;;;;;;25.24;28.21;92494.97;5072109;28;20036;-49
2022/04/09 06:32:50;;;;;;;2.67;1.63;;;;;;;25.51;28.03;92502.03;5071327;28;20053;-49
2022/04/09 06:35:16;;;;;;;3.92;2.30;;;;;;;25.68;26.85;92512.31;5101448;28;20028;-52
2022/04/09 06:37:41;;;;;;;5.88;1.50;;;;;;;25.53;27.73;92502.06;5096090;28;20031;-51
2022/04/09 06:40:09;;;;;;;6.38;1.73;;;;;;;24.82;28.85;92511.56;5088660;28;20031;-51
2022/04/09 06:42:38;;;;;;;8.47;2.70;;;;;;;24.44;28.63;92509.78;5088249;28;20020;-50
2022/04/09 06:45:05;;;;;;;5.47;1.50;;;;;;;24.37;29.20;92513.78;5088475;28;20038;-52
2022/04/09 06:47:30;;;;;;;6.90;1.60;;;;;;;24.47;28.46;92506.31;5088250;28;20028;-52
2022/04/09 06:49:57;;;;;;;3.55;1.67;;;;;;;24.50;29.05;92513.47;5084557;28;20688;-53
2022/04/09 06:52:23;;;;;;;4.18;2.30;;;;;;;23.95;29.07;92513.28;5079450;28;20035;-53
2022/04/09 06:54:49;;;;;;;2.40;1.75;;;;;;;23.84;28.96;92509.44;5079846;28;20134;-50
2022/04/09 06:57:15;;;;;;;3.22;2.67;;;;;;;23.91;29.21;92508.22;5077768;28;20086;-52
2022/04/09 06:59:40;;;;;;;3.60;2.72;;;;;;;23.74;30.29;92516.84;5078137;28;20514;-47
2022/04/09 07:02:06;;;;;;;4.95;1.88;;;;;;;23.42;28.44;92510.94;5078267;28;20508;-52
2022/04/09 07:04:32;;;;;;;13.60;6.18;;;;;;;23.00;29.69;92512.34;5078767;28;20107;-53
2022/04/09 07:06:58;;;;;;;29.55;21.85;;;;;;;22.70;30.64;92497.28;5080872;28;20107;-57
2022/04/09 07:09:23;;;;;;;7.85;4.10;;;;;;;22.38;32.04;92514.44;5110812;28;20152;-54
2022/04/09 07:11:49;;;;;;;7.53;2.40;;;;;;;22.49;31.71;92519.03;5094088;28;20035;-57
2022/04/09 07:14:14;;;;;;;3.15;1.60;;;;;;;22.57;31.54;92512.97;5097357;28;20031;-55
2022/04/09 07:16:40;;;;;;;1.73;1.00;;;;;;;22.61;29.27;92515.94;5091974;28;20035;-55
2022/04/09 07:19:08;;;;;;;2.85;1.45;;;;;;;22.60;31.05;92512.44;5091445;28;20081;-52
2022/04/09 07:21:34;;;;;;;4.50;1.20;;;;;;;22.67;30.87;92521.06;5098901;28;20039;-56
2022/04/09 07:23:59;;;;;;;5.45;1.63;;;;;;;22.77;31.23;92510.88;5107184;28;20028;-55
2022/04/09 07:26:25;;;;;;;2.15;1.17;;;;;;;23.03;29.54;92506.13;5099270;28;20121;-57
2022/04/09 07:28:53;;;;;;;2.45;1.55;;;;;;;23.07;29.00;92502.72;5111288;27;20031;-52
2022/04/09 07:31:18;;;;;;;4.20;1.73;;;;;;;22.89;29.82;92513.41;5111576;28;20023;-50
2022/04/09 07:33:44;;;;;;;2.97;1.80;;;;;;;22.80;29.19;92503.22;5111171;28;20031;-56
2022/04/09 07:36:09;;;;;;;4.65;1.92;;;;;;;23.07;30.34;92503.44;5111171;28;20032;-57
2022/04/09 07:38:35;;;;;;;2.75;2.10;;;;;;;23.04;29.31;92512.50;5111430;28;20024;-48
2022/04/09 07:41:00;;;;;;;5.07;2.00;;;;;;;22.89;28.94;92502.13;5110977;28;20528;-52
2022/04/09 07:43:26;;;;;;;4.85;1.70;;;;;;;22.52;29.60;92491.72;5111045;28;20147;-54
2022/04/09 07:45:51;;;;;;;4.03;2.60;;;;;;;22.42;30.02;92506.13;5086470;28;20020;-55
2022/04/09 07:48:17;;;;;;;2.50;1.77;;;;;;;22.70;30.48;92494.47;5082824;28;20028;-56
2022/04/09 07:50:43;;;;;;;6.93;3.58;;;;;;;22.68;30.61;92494.34;5078045;28;20028;-57
2022/04/09 07:53:09;;;;;;;7.00;2.42;;;;;;;23.31;29.02;92495.78;5077754;28;20036;-57
2022/04/09 07:55:35;;;;;;;10.48;2.78;;;;;;;24.02;28.25;92504.31;5094895;28;20043;-57
2022/04/09 07:58:01;;;;;;;4.28;3.15;;;;;;;24.24;26.53;92495.09;5090217;28;20028;-52
2022/04/09 08:00:27;;;;;;;10.02;4.30;;;;;;;24.91;26.33;92492.00;5090313;28;20540;-57
2022/04/09 08:02:52;;;;;;;7.57;1.40;;;;;;;25.67;24.65;92487.53;5090452;28;20028;-54
2022/04/09 08:05:18;;;;;;;2.72;2.38;;;;;;;25.96;24.13;92490.34;5090279;28;20016;-55
2022/04/09 08:07:44;;;;;;;5.70;1.20;;;;;;;26.37;24.09;92491.91;5094756;28;20035;-53
2022/04/09 08:10:13;;;;;;;5.68;1.45;;;;;;;27.26;23.94;92479.44;5110854;28;20080;-54
2022/04/09 08:12:39;;;;;;;5.88;1.20;;;;;;;28.08;21.78;92480.03;5110897;28;20441;-53
2022/04/09 08:15:05;;;;;;;2.55;1.35;;;;;;;28.89;22.49;92481.78;5110583;28;20110;-54
2022/04/09 08:17:30;;;;;;;5.65;2.97;;;;;;;29.27;20.47;92475.78;5110488;28;20516;-55
2022/04/09 08:19:56;;;;;;;3.42;2.00;;;;;;;29.74;20.28;92474.75;5109693;28;20032;-53
2022/04/09 08:22:22;;;;;;;4.82;2.70;;;;;;;29.59;21.55;92478.88;5090143;28;20485;-55
2022/04/09 08:24:48;;;;;;;2.72;1.80;;;;;;;29.75;19.64;92453.44;5090192;28;20038;-56
2022/04/09 08:27:14;;;;;;;4.07;2.28;;;;;;;29.19;20.79;92477.13;5090388;28;20024;-56
2022/04/09 08:29:40;;;;;;;7.93;2.25;;;;;;;28.94;21.22;92478.28;5090114;28;20554;-56
2022/04/09 08:32:06;;;;;;;8.23;2.13;;;;;;;28.70;21.06;92486.53;5090029;28;20040;-55
2022/04/09 08:34:35;;;;;;;9.93;2.40;;;;;;;28.81;21.90;92479.56;5089979;28;20035;-57
2022/04/09 08:37:00;;;;;;;6.90;2.40;;;;;;;29.27;21.75;92487.88;5095417;28;20059;-57
2022/04/09 08:39:27;;;;;;;2.50;1.33;;;;;;;29.63;21.90;92493.13;5090613;28;20031;-56
2022/04/09 08:41:53;;;;;;;3.65;1.40;;;;;;;29.52;20.13;92483.13;5093257;28;20038;-58
2022/04/09 08:44:19;;;;;;;6.03;1.33;;;;;;;29.95;21.12;92479.91;5090163;28;20036;-57
2022/04/09 08:46:46;;;;;;;2.13;1.15;;;;;;;30.05;18.88;92476.41;5090388;28;20457;-55
2022/04/09 08:49:12;;;;;;;8.27;2.00;;;;;;;29.82;21.40;92474.84;5089853;28;20020;-57
2022/04/09 08:51:38;;;;;;;4.72;1.88;;;;;;;29.76;20.20;92477.63;5089601;28;20027;-57
2022/04/09 08:54:04;;;;;;;10.55;6.30;;;;;;;29.62;20.56;92469.69;5088466;28;20480;-57
2022/04/09 08:56:31;;;;;;;5.25;3.50;;;;;;;29.64;20.53;92468.97;5090550;28;20020;-57
2022/04/09 08:58:58;;;;;;;25.25;2.88;;;;;;;29.12;21.32;92469.94;5077722;28;20059;-56
2022/04/09 09:01:23;;;;;;;9.68;2.85;;;;;;;29.64;20.49;92464.00;5073510;28;20055;-56
2022/04/09 09:03:49;;;;;;;8.70;3.97;;;;;;;29.37;20.95;92467.34;5073482;28;20032;-58
2022/04/09 09:06:27;;;;;;;2.75;1.83;;;;;;;30.02;21.02;92474.25;5073232;28;20032;-57
2022/04/09 09:08:53;;;;;;;4.20;1.52;;;;;;;30.97;19.82;92458.34;5073768;28;20024;-56
2022/04/09 09:11:19;;;;;;;4.15;1.10;;;;;;;32.16;18.15;92456.97;5073295;28;20061;-56
2022/04/09 09:13:58;;;;;;;1.85;0.88;;;;;;;32.73;18.59;92446.13;5073200;28;20032;-57
2022/04/09 09:16:25;;;;;;;2.05;1.17;;;;;;;32.83;17.38;92446.06;5076122;28;20028;-57
2022/04/09 09:18:54;;;;;;;2.28;1.10;;;;;;;32.34;17.67;92456.22;5093807;28;20111;-55
2022/04/09 09:21:23;;;;;;;3.10;1.92;;;;;;;31.48;17.80;92457.03;5078407;28;20036;-56
2022/04/09 09:23:52;;;;;;;3.55;1.95;;;;;;;30.73;18.91;92453.28;5092055;28;20088;-56
2022/04/09 09:26:22;;;;;;;4.85;3.10;;;;;;;29.40;20.29;92435.38;5108756;28;20063;-56
2022/04/09 09:28:57;;;;;;;2.50;1.13;;;;;;;27.93;22.02;92447.88;5089197;28;20085;-57
2022/04/09 09:31:43;;;;;;;5.07;1.70;;;;;;;27.26;21.75;92456.75;5072911;28;20494;-57
2022/04/09 09:34:21;;;;;;;4.80;3.35;;;;;;;26.74;22.73;92448.06;5078607;28;20497;-54
2022/04/09 09:36:48;;;;;;;4.47;3.20;;;;;;;26.01;23.60;92455.06;5094630;28;20025;-56
2022/04/09 09:39:15;;;;;;;3.88;1.60;;;;;;;25.44;23.75;92455.94;5092611;28;20077;-56
2022/04/09 09:41:53;;;;;;;4.78;2.72;;;;;;;25.03;25.12;92452.78;5086157;28;20020;-57
2022/04/09 09:44:23;;;;;;;8.73;2.80;;;;;;;24.97;25.72;92458.28;5099256;28;20031;-54
2022/04/09 09:46:50;;;;;;;3.78;2.25;;;;;;;24.78;25.03;92445.78;5094606;28;20031;-56
2022/04/09 09:49:17;;;;;;;3.80;2.45;;;;;;;24.54;26.82;92448.69;5099465;28;20036;-56
2022/04/09 09:51:43;;;;;;;5.22;2.15;;;;;;;24.59;26.80;92455.88;5099016;28;20078;-58
2022/04/09 09:54:13;;;;;;;8.88;3.85;;;;;;;24.42;26.69;92456.81;5112437;28;20404;-56
2022/04/09 09:56:41;;;;;;;6.30;2.60;;;;;;;24.69;27.58;92446.94;5095932;28;20024;-55
2022/04/09 09:59:10;;;;;;;2.85;1.73;;;;;;;24.46;27.16;92450.56;5091011;28;20126;-56
2022/04/09 10:01:44;;;;;;;11.85;2.83;;;;;;;24.45;27.70;92449.13;5091659;28;20024;-55
2022/04/09 10:04:11;;;;;;;3.42;1.88;;;;;;;24.62;28.23;92451.69;5109369;28;20024;-56
2022/04/09 10:06:38;;;;;;;2.80;1.85;;;;;;;24.57;26.95;92450.19;5097511;28;20458;-56
2022/04/09 10:09:06;;;;;;;2.25;1.50;;;;;;;24.23;26.50;92446.44;5096057;28;20057;-56
2022/04/09 10:11:36;;;;;;;3.50;1.08;;;;;;;24.37;27.09;92443.97;5094102;28;20032;-56
2022/04/09 10:14:05;;;;;;;6.50;2.47;;;;;;;24.44;27.69;92444.88;5090252;28;20036;-53
2022/04/09 10:16:34;;;;;;;5.95;1.83;;;;;;;24.82;27.66;92438.16;5090938;28;20442;-55
2022/04/09 10:19:00;;;;;;;5.80;2.75;;;;;;;24.77;26.52;92441.53;5077215;28;20505;-55
2022/04/09 10:21:31;;;;;;;23.60;11.07;;;;;;;24.92;26.51;92422.84;5070374;28;20511;-57
2022/04/09 10:23:58;;;;;;;10.68;4.85;;;;;;;25.55;25.37;92431.44;5067678;28;20095;-55
2022/04/09 10:26:24;;;;;;;10.73;3.10;;;;;;;26.12;24.98;92436.94;5069084;28;20029;-57
2022/04/09 10:28:51;;;;;;;4.47;1.25;;;;;;;26.89;23.67;92427.81;5067947;28;20024;-57
2022/04/09 10:31:22;;;;;;;10.73;2.85;;;;;;;27.45;25.65;92419.53;5069217;28;20032;-58
2022/04/09 10:33:55;;;;;;;11.20;2.67;;;;;;;28.37;22.48;92419.38;5068867;28;20055;-55
2022/04/09 10:36:45;;;;;;;10.18;2.40;;;;;;;29.54;21.10;92414.88;5068364;28;20097;-57
2022/04/09 10:39:42;;;;;;;7.50;3.08;;;;;;;30.04;20.60;92406.66;5069544;28;20021;-59
2022/04/09 10:42:08;;;;;;;18.67;9.38;;;;;;;29.89;20.00;92397.31;5071508;28;20017;-53
2022/04/09 10:44:42;;;;;;;5.65;1.52;;;;;;;30.06;19.56;92397.44;5071360;28;20034;-55
2022/04/09 10:47:08;;;;;;;4.80;2.03;;;;;;;31.09;20.60;92404.19;5071565;28;20509;-56
2022/04/09 10:49:34;;;;;;;5.80;1.80;;;;;;;31.81;18.90;92389.22;5071722;28;20021;-57
2022/04/09 10:52:05;;;;;;;28.60;13.68;;;;;;;30.89;18.65;92381.34;5071424;28;20486;-56
2022/04/09 10:54:31;;;;;;;6.88;2.92;;;;;;;30.29;18.60;92376.88;5071510;28;20029;-55
2022/04/09 10:57:06;;;;;;;45.30;21.35;;;;;;;29.92;19.90;92381.69;5076527;28;20027;-55
2022/04/09 10:59:33;;;;;;;15.45;9.18;;;;;;;29.10;20.46;92364.75;5071494;28;20052;-56
2022/04/09 11:01:59;;;;;;;22.55;9.93;;;;;;;28.20;21.17;92373.06;5071203;28;20525;-57
2022/04/09 11:04:29;;;;;;;10.85;5.68;;;;;;;28.66;21.47;92369.31;5071063;28;20033;-55
2022/04/09 11:07:08;;;;;;;12.13;5.30;;;;;;;27.67;21.24;92374.50;5071270;28;20471;-56
2022/04/09 11:09:50;;;;;;;;;;;;;;;27.57;23.62;92379.31;5078724;28;20543;-57
2022/04/09 11:12:19;;;;;;;8.50;2.53;;;;;;;26.79;22.35;92358.97;5091150;28;19911;-53
2022/04/09 11:14:45;;;;;;;;;;;;;;;26.57;21.27;92379.09;5092102;28;20098;-58
2022/04/09 11:17:18;;;;;;;11.40;5.03;;;;;;;26.29;23.63;92375.75;5076164;28;19912;-58
2022/04/09 11:19:45;;;;;;;15.80;7.88;;;;;;;25.68;23.39;92370.22;5070896;28;20410;-58
2022/04/09 11:22:11;;;;;;;16.23;5.72;;;;;;;25.41;23.38;92374.56;5071032;28;20012;-58
2022/04/09 11:24:38;;;;;;;4.85;1.52;;;;;;;25.27;23.88;92372.16;5070806;28;20050;-58
2022/04/09 11:27:04;;;;;;;9.02;3.70;;;;;;;25.22;22.88;92370.63;5070841;28;20055;-57
2022/04/09 11:29:36;;;;;;;21.48;9.70;;;;;;;24.88;24.00;92372.66;5074490;28;20501;-57